Time;durP1;ratioP1;P1;durP2;ratioP2;P2;SDS_P1;SDS_P2;PMS_P1;PMS_P2;Temp;Humidity;BMP_temperature;BMP_pressure;BME280_temperature;BME280_humidity;BME280_pressure;Samples;Min_cycle;Max_cycle;Signal;HPM_P1;HPM_P2
2023/06/04 00:01:31;;;;;;;6.50;2.40;;;;;;;10.94;74.67;101983.56;5092016;28;20028;-46
2023/06/04 00:03:56;;;;;;;6.68;2.15;;;;;;;10.99;74.89;101984.66;5092915;28;20021;-45
2023/06/04 00:06:21;;;;;;;7.88;3.05;;;;;;;10.94;75.47;101986.16;5092403;28;20052;-48
2023/06/04 00:08:47;;;;;;;4.05;2.03;;;;;;;10.95;75.37;101978.47;5092159;28;20498;-45
2023/06/04 00:11:12;;;;;;;4.53;2.55;;;;;;;10.91;75.52;101983.41;5092732;28;20090;-45
2023/06/04 00:13:37;;;;;;;5.45;2.28;;;;;;;10.86;76.34;101983.22;5092550;28;20020;-48
2023/06/04 00:16:02;;;;;;;4.47;2.25;;;;;;;10.78;76.91;101982.84;5091884;28;20028;-47
2023/06/04 00:18:28;;;;;;;5.07;2.42;;;;;;;10.74;77.38;101975.75;5092531;28;20498;-45
2023/06/04 00:20:53;;;;;;;6.47;2.55;;;;;;;10.71;77.58;101978.22;5092543;28;20052;-45
2023/06/04 00:23:18;;;;;;;5.72;2.75;;;;;;;10.73;77.37;101974.03;5091719;28;20024;-45
2023/06/04 00:25:43;;;;;;;5.35;2.83;;;;;;;10.66;78.17;101974.53;5092983;28;20028;-46
2023/06/04 00:28:09;;;;;;;6.25;2.40;;;;;;;10.65;78.39;101967.59;5092720;28;20039;-46
2023/06/04 00:30:35;;;;;;;5.80;2.22;;;;;;;10.66;78.26;101972.81;5091544;28;20135;-45
2023/06/04 00:33:00;;;;;;;4.35;2.70;;;;;;;10.67;78.37;101981.47;5092807;28;20104;-45
2023/06/04 00:35:26;;;;;;;5.43;2.65;;;;;;;10.65;78.22;101970.19;5092180;28;20025;-47
2023/06/04 00:37:51;;;;;;;5.32;2.40;;;;;;;10.60;78.82;101971.66;5091675;28;20035;-47
2023/06/04 00:40:16;;;;;;;5.88;2.45;;;;;;;10.60;79.15;101971.66;5092368;28;20098;-47
2023/06/04 00:42:42;;;;;;;6.63;2.55;;;;;;;10.57;79.63;101974.09;5092533;28;20434;-47
2023/06/04 00:45:09;;;;;;;4.97;2.58;;;;;;;10.60;79.12;101971.66;5093621;28;20070;-45
2023/06/04 00:47:35;;;;;;;6.03;2.33;;;;;;;10.59;79.22;101964.72;5096056;28;20020;-49
2023/06/04 00:50:00;;;;;;;5.53;2.40;;;;;;;10.52;79.92;101967.03;5096159;28;20032;-44
2023/06/04 00:52:26;;;;;;;5.13;2.35;;;;;;;10.45;80.58;101959.81;5095044;28;20031;-46
2023/06/04 00:54:54;;;;;;;5.90;2.42;;;;;;;10.35;81.21;101967.88;5096288;28;20375;-45
2023/06/04 00:57:20;;;;;;;6.00;2.20;;;;;;;10.39;80.85;101972.38;5095884;28;20031;-45
2023/06/04 00:59:45;;;;;;;5.75;2.50;;;;;;;10.33;81.84;101972.09;5095457;28;20372;-46
2023/06/04 01:02:19;;;;;;;6.38;2.60;;;;;;;10.35;81.85;101965.28;5096080;28;20020;-45
2023/06/04 01:04:59;;;;;;;5.63;2.28;;;;;;;10.32;81.97;101970.31;5095054;28;20489;-46
2023/06/04 01:07:28;;;;;;;6.80;2.60;;;;;;;10.29;82.55;101972.72;5095735;28;20028;-46
2023/06/04 01:09:53;;;;;;;6.10;2.35;;;;;;;10.21;82.75;101970.66;5095919;28;20024;-45
2023/06/04 01:12:19;;;;;;;8.27;2.40;;;;;;;10.18;83.28;101970.50;5094815;28;20028;-45
2023/06/04 01:14:45;;;;;;;4.82;2.20;;;;;;;10.17;83.65;101976.50;5095756;28;20024;-45
2023/06/04 01:17:17;;;;;;;5.88;2.35;;;;;;;10.20;83.50;101974.06;5095832;28;20032;-47
2023/06/04 01:20:03;;;;;;;5.75;2.60;;;;;;;10.24;82.94;101979.34;5094783;28;20051;-46
2023/06/04 01:23:03;;;;;;;6.32;2.28;;;;;;;10.27;82.29;101985.53;5095498;28;20036;-47
2023/06/04 01:25:34;;;;;;;4.88;2.20;;;;;;;10.14;84.11;101984.03;5095378;28;20443;-46
2023/06/04 01:28:03;;;;;;;4.43;2.30;;;;;;;10.13;84.25;101981.41;5094641;28;20357;-47
2023/06/04 01:30:31;;;;;;;7.30;2.67;;;;;;;10.11;84.08;101973.59;5095241;28;20047;-46
2023/06/04 01:32:57;;;;;;;6.93;2.70;;;;;;;10.11;84.21;101978.75;5094542;28;20471;-45
2023/06/04 01:35:23;;;;;;;5.53;2.60;;;;;;;10.06;84.62;101977.63;5095276;28;20055;-48
2023/06/04 01:37:49;;;;;;;4.07;2.58;;;;;;;10.04;84.72;101975.00;5095097;28;20055;-46
2023/06/04 01:40:15;;;;;;;7.45;2.95;;;;;;;10.04;84.54;101974.09;5094352;28;20031;-44
2023/06/04 01:42:44;;;;;;;5.55;2.50;;;;;;;9.94;85.16;101980.50;5095151;28;20024;-45
2023/06/04 01:45:10;;;;;;;5.00;2.40;;;;;;;9.86;85.64;101977.53;5095090;28;20466;-48
2023/06/04 01:47:36;;;;;;;5.30;2.28;;;;;;;9.80;85.82;101972.06;5094008;28;20383;-45
2023/06/04 01:50:03;;;;;;;5.93;2.78;;;;;;;9.77;86.36;101982.19;5094988;28;20043;-45
2023/06/04 01:52:28;;;;;;;5.10;2.70;;;;;;;9.74;86.32;101974.31;5094622;28;20028;-47
2023/06/04 01:54:53;;;;;;;6.25;2.60;;;;;;;9.63;86.79;101978.03;5094204;28;20024;-46
2023/06/04 01:57:20;;;;;;;6.72;2.90;;;;;;;9.66;86.68;101975.63;5093887;28;20032;-46
2023/06/04 01:59:46;;;;;;;5.75;2.58;;;;;;;9.63;86.58;101972.88;5094994;28;20016;-48
2023/06/04 02:02:12;;;;;;;5.22;2.50;;;;;;;9.72;86.27;101973.34;5094083;28;20077;-47
2023/06/04 02:04:37;;;;;;;5.20;2.58;;;;;;;9.69;86.68;101975.78;5094463;28;20437;-46
2023/06/04 02:07:02;;;;;;;6.10;2.50;;;;;;;9.70;86.00;101988.72;5094689;28;20413;-46
2023/06/04 02:09:28;;;;;;;4.15;2.30;;;;;;;9.63;86.64;101978.03;5093539;28;20533;-45
2023/06/04 02:11:53;;;;;;;7.97;3.13;;;;;;;9.49;87.38;101980.78;5094758;28;20027;-46
2023/06/04 02:14:18;;;;;;;6.97;2.75;;;;;;;9.39;87.73;101973.38;5094143;28;20112;-47
2023/06/04 02:16:44;;;;;;;4.47;2.80;;;;;;;9.28;88.35;101970.22;5093732;28;20053;-46
2023/06/04 02:19:12;;;;;;;3.80;2.60;;;;;;;9.20;89.10;101977.53;5094208;28;20035;-45
2023/06/04 02:21:38;;;;;;;5.75;2.80;;;;;;;9.02;90.11;101971.41;5094145;28;20039;-44
2023/06/04 02:24:03;;;;;;;6.75;2.70;;;;;;;8.92;90.63;101969.16;5093528;28;20028;-45
2023/06/04 02:26:28;;;;;;;6.90;3.28;;;;;;;8.82;91.52;101967.75;5093945;28;20115;-46
2023/06/04 02:28:53;;;;;;;6.28;2.63;;;;;;;8.86;91.86;101975.72;5094348;28;20024;-45
2023/06/04 02:31:19;;;;;;;6.43;2.95;;;;;;;8.79;92.44;101973.63;5093112;28;20020;-45
2023/06/04 02:33:44;;;;;;;6.25;2.97;;;;;;;8.75;92.79;101971.66;5094177;28;20043;-48
2023/06/04 02:36:10;;;;;;;4.20;2.88;;;;;;;8.78;92.69;101966.72;5093320;28;20020;-45
2023/06/04 02:38:35;;;;;;;6.20;2.80;;;;;;;8.86;92.65;101970.56;5093779;28;20040;-45
2023/06/04 02:41:00;;;;;;;8.27;3.08;;;;;;;8.85;92.36;101962.78;5094237;28;20103;-45
2023/06/04 02:43:26;;;;;;;10.57;3.08;;;;;;;8.97;92.01;101972.84;5093108;28;20058;-47
2023/06/04 02:45:51;;;;;;;6.10;3.00;;;;;;;9.02;91.40;101976.56;5094210;28;20509;-46
2023/06/04 02:48:16;;;;;;;7.32;2.70;;;;;;;8.95;91.95;101979.59;5093659;28;20028;-47
2023/06/04 02:50:42;;;;;;;7.32;2.83;;;;;;;8.85;92.17;101979.09;5093296;28;20480;-45
2023/06/04 02:53:07;;;;;;;6.13;3.08;;;;;;;8.84;92.05;101982.44;5093691;28;20020;-45
2023/06/04 02:55:33;;;;;;;5.85;3.05;;;;;;;8.77;92.59;101982.06;5093677;28;20031;-46
2023/06/04 02:58:00;;;;;;;6.25;3.60;;;;;;;8.71;92.97;101977.44;5093328;28;20032;-44
2023/06/04 03:00:26;;;;;;;7.13;3.50;;;;;;;8.75;92.93;101974.25;5093569;28;20051;-46
2023/06/04 03:02:51;;;;;;;7.03;3.50;;;;;;;8.59;93.14;101975.09;5093783;28;20126;-49
2023/06/04 03:05:17;;;;;;;7.57;2.83;;;;;;;8.56;93.53;101977.50;5092611;28;20024;-46
2023/06/04 03:07:44;;;;;;;5.13;2.83;;;;;;;8.48;94.27;101983.88;5093426;28;20083;-45
2023/06/04 03:10:11;;;;;;;6.78;3.40;;;;;;;8.47;94.08;101988.13;5093737;28;20052;-45
2023/06/04 03:12:36;;;;;;;7.78;3.10;;;;;;;8.42;94.64;101981.81;5092606;28;20056;-44
2023/06/04 03:15:03;;;;;;;6.25;3.10;;;;;;;8.43;94.47;101986.16;5093515;28;20052;-47
2023/06/04 03:17:28;;;;;;;5.47;3.20;;;;;;;8.45;94.60;101981.97;5093084;28;20452;-45
2023/06/04 03:19:55;;;;;;;5.20;3.35;;;;;;;8.39;94.63;101977.38;5092425;28;20111;-45
2023/06/04 03:22:21;;;;;;;6.07;3.10;;;;;;;8.37;94.81;101973.84;5092968;28;20020;-48
2023/06/04 03:24:46;;;;;;;5.45;2.90;;;;;;;8.38;94.70;101980.75;5093452;28;20027;-51
2023/06/04 03:27:12;;;;;;;7.18;3.10;;;;;;;8.43;94.35;101972.41;5092604;28;20225;-49
2023/06/04 03:29:37;;;;;;;6.95;3.17;;;;;;;8.32;94.96;101974.38;5093120;28;20040;-50
2023/06/04 03:32:03;;;;;;;4.60;3.30;;;;;;;8.32;95.22;101974.38;5093173;28;20058;-49
2023/06/04 03:34:31;;;;;;;5.45;3.30;;;;;;;8.27;95.85;101974.13;5092083;28;20020;-50
2023/06/04 03:36:57;;;;;;;6.53;3.30;;;;;;;8.29;95.76;101974.19;5093008;28;20095;-50
2023/06/04 03:39:22;;;;;;;7.05;3.50;;;;;;;8.31;96.02;101977.75;5092200;28;20524;-47
2023/06/04 03:41:48;;;;;;;7.32;3.42;;;;;;;8.36;95.16;101979.75;5093170;28;20020;-45
2023/06/04 03:44:15;;;;;;;6.07;3.25;;;;;;;8.33;95.40;101977.03;5093075;28;20066;-49
2023/06/04 03:46:41;;;;;;;5.30;3.22;;;;;;;8.34;95.58;101983.94;5092242;28;20134;-51
2023/06/04 03:49:06;;;;;;;7.45;3.35;;;;;;;8.35;95.37;101982.25;5092991;28;20483;-49
2023/06/04 03:51:32;;;;;;;5.93;3.25;;;;;;;8.34;95.75;101977.91;5092557;28;20028;-50
2023/06/04 03:53:58;;;;;;;4.55;2.95;;;;;;;8.37;95.46;101973.84;5092344;28;20028;-49
2023/06/04 03:56:24;;;;;;;6.55;3.42;;;;;;;8.38;95.24;101979.88;5092625;28;20039;-48
2023/06/04 03:58:49;;;;;;;5.95;3.42;;;;;;;8.34;95.52;101972.78;5093013;28;20024;-51
2023/06/04 04:01:15;;;;;;;5.57;3.47;;;;;;;8.37;95.59;101978.09;5092191;28;20077;-51
2023/06/04 04:03:40;;;;;;;8.05;3.28;;;;;;;8.37;95.45;101976.41;5092851;28;20028;-50
2023/06/04 04:06:05;;;;;;;5.70;3.20;;;;;;;8.42;95.15;101979.25;5092664;28;20027;-48
2023/06/04 04:08:31;;;;;;;4.72;3.28;;;;;;;8.42;95.52;101974.13;5091762;28;20073;-49
2023/06/04 04:11:00;;;;;;;5.03;3.03;;;;;;;8.44;95.48;101982.78;5092841;28;20487;-50
2023/06/04 04:13:25;;;;;;;5.15;3.10;;;;;;;8.52;95.01;101979.00;5092503;28;20028;-48
2023/06/04 04:15:52;;;;;;;5.95;3.65;;;;;;;8.55;94.99;101981.72;5091907;28;20103;-50
2023/06/04 04:18:19;;;;;;;7.13;3.47;;;;;;;8.59;94.92;101984.50;5092269;28;20464;-50
2023/06/04 04:20:45;;;;;;;5.57;3.15;;;;;;;8.62;94.97;101982.97;5095418;28;20036;-49
2023/06/04 04:23:11;;;;;;;4.75;3.22;;;;;;;8.65;95.19;101989.94;5096059;28;20024;-49
2023/06/04 04:25:37;;;;;;;8.20;3.53;;;;;;;8.73;93.79;101986.13;5096480;28;20020;-50
2023/06/04 04:28:06;;;;;;;7.70;3.42;;;;;;;8.72;94.28;101977.53;5096835;28;20089;-49
2023/06/04 04:30:34;;;;;;;7.90;3.53;;;;;;;8.81;93.68;101977.16;5095556;28;20098;-50
2023/06/04 04:33:05;;;;;;;6.78;3.22;;;;;;;8.87;93.33;101981.72;5096541;28;20028;-48
2023/06/04 04:35:32;;;;;;;4.68;3.00;;;;;;;8.89;93.91;101981.00;5096421;28;20027;-49
2023/06/04 04:37:58;;;;;;;7.10;3.05;;;;;;;8.94;93.96;101982.97;5095476;28;20040;-50
2023/06/04 04:40:23;;;;;;;7.18;3.50;;;;;;;9.02;93.33;101984.28;5096102;28;20107;-50
2023/06/04 04:42:48;;;;;;;7.80;3.40;;;;;;;9.06;93.09;101979.38;5095578;28;20081;-45
2023/06/04 04:45:14;;;;;;;8.00;3.50;;;;;;;9.14;93.00;101982.38;5096314;28;20034;-50
2023/06/04 04:47:39;;;;;;;6.43;3.33;;;;;;;9.25;92.62;101984.63;5095924;28;20020;-50
2023/06/04 04:50:05;;;;;;;6.22;3.58;;;;;;;9.33;91.71;101993.63;5095404;28;20020;-48
2023/06/04 04:52:31;;;;;;;5.50;3.35;;;;;;;9.39;92.16;101988.81;5095763;28;20352;-50
2023/06/04 04:54:57;;;;;;;6.72;3.45;;;;;;;9.49;91.78;101996.22;5096153;28;20050;-49
2023/06/04 04:57:23;;;;;;;8.30;3.80;;;;;;;9.58;92.43;101992.34;5094981;28;20110;-48
2023/06/04 04:59:49;;;;;;;7.40;3.38;;;;;;;9.68;91.96;101992.91;5096003;28;20047;-47
2023/06/04 05:02:15;;;;;;;6.35;3.55;;;;;;;9.73;93.08;101995.72;5096013;28;20024;-49
2023/06/04 05:04:40;;;;;;;6.45;3.08;;;;;;;9.84;91.00;101997.16;5094728;28;20373;-49
2023/06/04 05:07:05;;;;;;;8.80;3.63;;;;;;;9.89;91.09;101998.28;5095957;28;20020;-50
2023/06/04 05:09:31;;;;;;;8.38;3.53;;;;;;;9.96;89.14;101998.59;5095703;28;20023;-46
2023/06/04 05:11:56;;;;;;;6.95;3.40;;;;;;;10.06;88.63;101993.09;5094981;28;20024;-49
2023/06/04 05:14:21;;;;;;;8.52;3.30;;;;;;;10.14;87.52;101996.94;5095249;28;20040;-46
2023/06/04 05:16:48;;;;;;;4.97;3.28;;;;;;;10.30;88.12;101995.09;5095516;28;20476;-50
2023/06/04 05:19:14;;;;;;;7.22;3.08;;;;;;;10.37;87.27;101994.66;5094660;28;20472;-49
2023/06/04 05:21:39;;;;;;;5.05;3.22;;;;;;;10.47;87.84;101999.44;5096336;28;20063;-48
2023/06/04 05:24:05;;;;;;;7.60;3.45;;;;;;;10.60;86.42;101995.75;5095610;28;20061;-49
2023/06/04 05:26:30;;;;;;;6.90;3.45;;;;;;;10.66;86.18;102000.31;5094463;28;20107;-49
2023/06/04 05:28:55;;;;;;;6.50;3.20;;;;;;;10.75;86.83;101999.88;5095426;28;20016;-49
2023/06/04 05:31:21;;;;;;;8.13;3.10;;;;;;;10.79;83.87;101992.34;5093904;28;20024;-48
2023/06/04 05:33:47;;;;;;;6.72;3.38;;;;;;;10.89;86.08;102003.97;5094574;28;20115;-51
2023/06/04 05:36:13;;;;;;;5.78;3.55;;;;;;;10.97;85.83;101999.19;5095384;28;20110;-49
2023/06/04 05:38:38;;;;;;;8.85;3.10;;;;;;;11.02;83.84;102003.72;5095095;28;20352;-50
2023/06/04 05:41:04;;;;;;;6.65;3.00;;;;;;;11.11;85.02;102000.69;5094584;28;20547;-51
2023/06/04 05:43:29;;;;;;;7.50;3.40;;;;;;;11.17;84.75;102000.97;5095016;28;20459;-49
2023/06/04 05:45:54;;;;;;;5.60;3.35;;;;;;;11.26;83.26;102002.19;5095054;28;20035;-50
2023/06/04 05:48:20;;;;;;;7.57;3.40;;;;;;;11.28;81.46;102009.19;5094110;28;20028;-49
2023/06/04 05:50:47;;;;;;;6.30;2.92;;;;;;;11.36;81.87;102001.81;5095165;28;20177;-50
2023/06/04 05:53:12;;;;;;;5.55;3.22;;;;;;;11.52;82.67;101993.94;5094115;28;20028;-50
2023/06/04 05:55:37;;;;;;;7.68;3.60;;;;;;;11.67;82.89;102001.47;5094844;28;20031;-50
2023/06/04 05:58:03;;;;;;;8.88;2.97;;;;;;;11.75;82.33;102006.97;5094744;28;20085;-49
2023/06/04 06:00:28;;;;;;;6.63;3.28;;;;;;;11.90;81.56;102005.88;5093832;28;20024;-49
2023/06/04 06:02:55;;;;;;;5.53;3.58;;;;;;;12.00;80.73;101997.72;5094744;28;20046;-50
2023/06/04 06:05:20;;;;;;;5.95;3.15;;;;;;;12.13;80.87;102002.56;5094279;28;20494;-49
2023/06/04 06:07:46;;;;;;;5.93;3.20;;;;;;;12.18;78.71;101997.59;5094125;28;20107;-49
2023/06/04 06:10:12;;;;;;;6.25;3.33;;;;;;;12.33;78.29;102003.41;5094717;28;20072;-50
2023/06/04 06:12:38;;;;;;;6.97;3.40;;;;;;;12.35;77.86;102006.06;5094307;28;20020;-49
2023/06/04 06:15:04;;;;;;;5.95;3.17;;;;;;;12.50;77.95;102006.69;5093798;28;20023;-45
2023/06/04 06:17:30;;;;;;;6.68;3.17;;;;;;;12.58;76.67;102008.69;5093968;28;20056;-50
2023/06/04 06:19:55;;;;;;;6.90;3.65;;;;;;;12.68;76.81;102008.25;5094425;28;20033;-49
2023/06/04 06:22:21;;;;;;;7.50;3.60;;;;;;;12.80;76.05;102011.28;5093571;28;20562;-50
2023/06/04 06:24:48;;;;;;;7.13;3.30;;;;;;;12.91;76.80;102006.56;5094400;28;20024;-49
2023/06/04 06:27:15;;;;;;;6.18;3.00;;;;;;;12.97;75.51;102008.50;5094191;28;20024;-49
2023/06/04 06:29:41;;;;;;;6.22;3.20;;;;;;;13.08;73.61;102008.88;5093564;28;20035;-49
2023/06/04 06:32:07;;;;;;;7.03;3.03;;;;;;;13.21;73.44;102008.53;5094267;28;20049;-50
2023/06/04 06:34:32;;;;;;;8.13;3.50;;;;;;;13.31;72.89;102014.94;5093967;28;20027;-48
2023/06/04 06:36:57;;;;;;;5.88;3.22;;;;;;;13.45;72.74;102024.13;5093160;28;20047;-50
2023/06/04 06:39:22;;;;;;;7.65;3.33;;;;;;;13.51;71.91;102023.47;5093848;28;20471;-49
2023/06/04 06:41:48;;;;;;;7.03;3.20;;;;;;;13.69;71.51;102022.38;5093855;28;20020;-50
2023/06/04 06:44:13;;;;;;;5.40;3.10;;;;;;;13.77;70.78;102021.81;5093040;28;20103;-49
2023/06/04 06:46:38;;;;;;;7.45;3.30;;;;;;;13.98;72.50;102024.28;5093807;28;20064;-49
2023/06/04 06:49:04;;;;;;;8.93;3.10;;;;;;;13.98;69.45;102026.88;5093757;28;20024;-49
2023/06/04 06:51:29;;;;;;;7.00;2.88;;;;;;;14.02;68.33;102027.88;5092932;28;20052;-50
2023/06/04 06:53:55;;;;;;;5.03;3.20;;;;;;;14.19;69.28;102024.94;5094004;28;20030;-50
2023/06/04 06:56:20;;;;;;;5.65;3.30;;;;;;;14.31;66.35;102031.41;5092767;28;20016;-49
2023/06/04 06:58:45;;;;;;;7.05;3.10;;;;;;;14.36;67.29;102029.00;5093794;28;20024;-48
2023/06/04 07:01:11;;;;;;;5.43;2.90;;;;;;;14.48;64.94;102031.97;5093688;28;20063;-49
2023/06/04 07:03:38;;;;;;;5.97;3.08;;;;;;;14.60;64.62;102033.19;5092792;28;20024;-50
2023/06/04 07:06:04;;;;;;;7.30;3.08;;;;;;;14.64;64.31;102029.91;5093760;28;20097;-51
2023/06/04 07:08:29;;;;;;;7.55;3.15;;;;;;;14.77;66.31;102037.25;5093192;28;20387;-49
2023/06/04 07:10:54;;;;;;;6.00;3.05;;;;;;;14.90;64.67;102037.63;5092918;28;20032;-49
2023/06/04 07:13:20;;;;;;;6.97;3.00;;;;;;;14.97;61.37;102035.25;5093187;28;20054;-50
2023/06/04 07:15:45;;;;;;;6.72;2.90;;;;;;;15.09;61.74;102044.25;5093333;28;20031;-51
2023/06/04 07:18:11;;;;;;;6.95;2.92;;;;;;;15.19;59.26;102040.22;5092757;28;20067;-49
2023/06/04 07:20:36;;;;;;;5.50;3.08;;;;;;;15.38;63.89;102037.34;5092855;28;20119;-47
2023/06/04 07:23:01;;;;;;;8.40;3.30;;;;;;;15.58;61.13;102034.41;5093344;28;20107;-50
2023/06/04 07:25:26;;;;;;;7.63;2.90;;;;;;;15.65;60.16;102036.34;5092137;28;20089;-47
2023/06/04 07:27:52;;;;;;;6.75;2.80;;;;;;;15.72;58.64;102043.47;5093402;28;20039;-51
2023/06/04 07:30:18;;;;;;;6.43;2.85;;;;;;;15.83;58.34;102037.72;5092738;28;20111;-46
2023/06/04 07:32:50;;;;;;;5.63;2.40;;;;;;;15.88;58.73;102041.31;5092646;28;20028;-48
2023/06/04 07:35:16;;;;;;;5.13;3.17;;;;;;;16.10;60.03;102035.84;5093018;28;20030;-44
2023/06/04 07:37:44;;;;;;;8.25;3.22;;;;;;;16.19;56.20;102034.31;5093196;28;20036;-46
2023/06/04 07:40:10;;;;;;;6.35;3.17;;;;;;;16.18;53.76;102037.75;5092440;28;20062;-49
2023/06/04 07:42:35;;;;;;;5.88;2.72;;;;;;;16.35;54.36;102041.69;5092773;28;20225;-50
2023/06/04 07:45:01;;;;;;;8.80;2.83;;;;;;;16.52;55.63;102034.28;5093000;28;20027;-45
2023/06/04 07:47:27;;;;;;;7.53;2.58;;;;;;;16.66;54.22;102037.22;5092111;28;20048;-48
2023/06/04 07:49:52;;;;;;;6.88;2.70;;;;;;;16.82;51.88;102037.56;5093107;28;20200;-49
2023/06/04 07:52:18;;;;;;;4.78;2.60;;;;;;;16.94;52.26;102043.97;5092701;28;20027;-50
2023/06/04 07:54:43;;;;;;;9.02;3.08;;;;;;;16.91;48.55;102043.00;5091233;28;20467;-49
2023/06/04 07:57:09;;;;;;;6.18;2.50;;;;;;;17.07;49.64;102045.13;5092809;28;20098;-49
2023/06/04 07:59:34;;;;;;;4.22;2.17;;;;;;;17.16;45.85;102048.75;5092155;28;20357;-47
2023/06/04 08:01:59;;;;;;;4.95;2.20;;;;;;;17.22;44.93;102043.69;5092725;28;20425;-47
2023/06/04 08:04:25;;;;;;;5.53;2.40;;;;;;;17.31;45.53;102038.66;5092719;28;20016;-47
2023/06/04 08:06:51;;;;;;;5.47;2.58;;;;;;;17.55;50.04;102037.41;5092160;28;20027;-49
2023/06/04 08:09:17;;;;;;;5.10;2.85;;;;;;;17.57;47.06;102038.31;5092463;28;20364;-47
2023/06/04 08:11:45;;;;;;;6.07;2.50;;;;;;;17.61;45.27;102038.41;5092977;28;20028;-46
2023/06/04 08:14:12;;;;;;;5.28;2.40;;;;;;;17.66;43.95;102043.69;5091881;28;20024;-48
2023/06/04 08:16:38;;;;;;;7.18;2.78;;;;;;;17.66;43.53;102042.84;5092550;28;20050;-45
2023/06/04 08:19:03;;;;;;;7.65;2.30;;;;;;;17.88;47.26;102037.19;5092697;28;20475;-45
2023/06/04 08:21:29;;;;;;;4.18;2.20;;;;;;;18.19;49.89;102042.97;5091753;28;20024;-46
2023/06/04 08:23:55;;;;;;;4.50;2.20;;;;;;;18.30;45.84;102044.91;5092632;28;20432;-48
2023/06/04 08:26:21;;;;;;;6.15;2.72;;;;;;;18.53;44.12;102042.66;5092385;28;20554;-48
2023/06/04 08:28:51;;;;;;;4.97;2.38;;;;;;;18.67;42.89;102046.34;5092070;28;20099;-48
2023/06/04 08:31:17;;;;;;;3.97;1.95;;;;;;;18.83;43.37;102044.84;5092438;28;20024;-50
2023/06/04 08:33:44;;;;;;;6.07;2.10;;;;;;;18.98;41.47;102041.59;5092648;28;20020;-48
2023/06/04 08:36:09;;;;;;;6.40;2.20;;;;;;;19.06;40.58;102045.19;5091811;28;20028;-50
2023/06/04 08:38:35;;;;;;;4.53;1.95;;;;;;;19.17;40.78;102039.22;5092063;28;20043;-51
2023/06/04 08:41:24;;;;;;;6.25;2.03;;;;;;;19.19;39.71;102045.38;5092516;28;20020;-49
2023/06/04 08:43:50;;;;;;;4.75;1.77;;;;;;;19.34;40.64;102047.28;5091898;28;20024;-49
2023/06/04 08:46:17;;;;;;;6.70;1.90;;;;;;;19.46;38.98;102043.94;5092104;28;20032;-47
2023/06/04 08:48:43;;;;;;;4.40;1.60;;;;;;;19.54;38.05;102039.69;5092474;28;20073;-47
2023/06/04 08:51:10;;;;;;;6.00;1.95;;;;;;;19.73;38.54;102043.38;5091715;28;20016;-45
2023/06/04 08:53:36;;;;;;;7.07;2.08;;;;;;;19.83;37.69;102052.22;5091977;28;20047;-49
2023/06/04 08:56:02;;;;;;;3.55;2.03;;;;;;;19.90;37.25;102044.47;5091792;28;20031;-49
2023/06/04 08:58:32;;;;;;;6.80;1.98;;;;;;;20.10;38.61;102048.13;5092099;28;20373;-49
2023/06/04 09:00:57;;;;;;;7.22;2.17;;;;;;;20.08;35.69;102050.75;5092410;28;20024;-47
2023/06/04 09:03:24;;;;;;;6.10;1.75;;;;;;;20.11;34.17;102055.13;5091307;28;20038;-50
2023/06/04 09:05:51;;;;;;;4.90;1.27;;;;;;;20.28;33.32;102050.03;5093348;28;20464;-50
2023/06/04 09:08:18;;;;;;;4.03;1.40;;;;;;;20.28;32.62;102058.75;5095490;28;20028;-50
2023/06/04 09:10:46;;;;;;;3.70;1.83;;;;;;;20.26;32.87;102054.38;5094858;28;20482;-47
2023/06/04 09:13:15;;;;;;;4.55;1.40;;;;;;;20.54;31.93;102055.47;5095674;28;20032;-50
2023/06/04 09:15:40;;;;;;;3.25;1.63;;;;;;;20.56;31.58;102064.22;5095310;28;20103;-50
2023/06/04 09:18:05;;;;;;;3.00;1.33;;;;;;;20.60;31.57;102055.53;5094880;28;20114;-49
2023/06/04 09:20:32;;;;;;;6.28;1.98;;;;;;;20.74;32.98;102058.28;5095100;28;20044;-50
2023/06/04 09:22:58;;;;;;;2.83;1.55;;;;;;;20.91;33.44;102054.91;5095634;28;20502;-48
2023/06/04 09:25:25;;;;;;;4.93;1.38;;;;;;;21.05;32.64;102054.09;5094562;28;20028;-49
2023/06/04 09:27:51;;;;;;;2.25;1.10;;;;;;;21.01;30.53;102056.69;5095511;28;20460;-50
2023/06/04 09:30:16;;;;;;;3.28;1.08;;;;;;;21.08;29.72;102057.59;5095123;28;20035;-48
2023/06/04 09:32:41;;;;;;;6.10;1.38;;;;;;;21.28;30.40;102058.56;5094617;28;20028;-45
2023/06/04 09:35:14;;;;;;;3.55;1.10;;;;;;;21.39;29.67;102063.84;5095238;28;20069;-48
2023/06/04 09:37:51;;;;;;;2.47;1.20;;;;;;;21.59;30.82;102063.06;5095006;28;20078;-48
2023/06/04 09:40:16;;;;;;;3.80;1.20;;;;;;;21.84;31.06;102058.78;5094468;28;20051;-48
2023/06/04 09:42:46;;;;;;;2.92;1.20;;;;;;;22.04;30.04;102054.44;5095310;28;20043;-48
2023/06/04 09:45:12;;;;;;;3.53;1.40;;;;;;;22.13;28.66;102057.94;5094446;28;20024;-50
2023/06/04 09:47:44;;;;;;;2.72;1.13;;;;;;;22.02;28.37;102045.66;5094850;28;20082;-49
2023/06/04 09:50:12;;;;;;;1.90;1.00;;;;;;;22.18;28.35;102053.56;5095215;28;20020;-49
2023/06/04 09:52:39;;;;;;;2.53;0.90;;;;;;;22.32;28.19;102051.84;5093929;28;20519;-49
2023/06/04 09:55:18;;;;;;;3.47;1.40;;;;;;;22.46;29.38;102054.47;5095054;28;20460;-47
2023/06/04 09:57:46;;;;;;;4.70;1.40;;;;;;;22.41;28.32;102052.72;5094873;28;20035;-48
2023/06/04 10:00:12;;;;;;;3.80;1.38;;;;;;;22.69;27.47;102054.44;5094039;28;20034;-49
2023/06/04 10:02:38;;;;;;;3.13;1.05;;;;;;;22.82;27.00;102049.16;5094968;28;20020;-49
2023/06/04 10:05:08;;;;;;;3.25;1.20;;;;;;;22.98;27.00;102050.88;5094924;28;20028;-48
2023/06/04 10:07:36;;;;;;;6.82;1.27;;;;;;;23.53;25.79;102048.91;5093897;28;20054;-46
2023/06/04 10:10:02;;;;;;;1.95;1.10;;;;;;;24.21;25.94;102048.50;5094871;28;20016;-48
2023/06/04 10:12:34;;;;;;;4.57;1.27;;;;;;;23.70;25.38;102045.31;5094326;28;20357;-48
2023/06/04 10:15:05;;;;;;;3.72;1.40;;;;;;;23.99;25.46;102048.66;5093793;28;20432;-50
2023/06/04 10:17:32;;;;;;;10.80;2.40;;;;;;;24.94;25.31;102051.31;5093318;28;20051;-49
2023/06/04 10:19:59;;;;;;;3.05;1.20;;;;;;;25.02;23.84;102047.72;5094257;28;20055;-50
2023/06/04 10:22:25;;;;;;;;;;;;;;;25.87;25.88;102057.19;5093906;28;20107;-49
2023/06/04 10:24:50;;;;;;;4.00;1.30;;;;;;;27.43;21.78;102046.44;5094339;28;20006;-48
2023/06/04 10:27:20;;;;;;;4.45;1.35;;;;;;;27.50;20.63;102053.34;5093662;28;20031;-44
2023/06/04 10:29:46;;;;;;;3.47;1.20;;;;;;;28.21;21.07;102051.69;5094427;28;20091;-49
2023/06/04 10:32:11;;;;;;;5.22;1.10;;;;;;;28.60;20.39;102053.34;5094488;28;20156;-50
2023/06/04 10:34:37;;;;;;;2.97;1.10;;;;;;;29.19;21.27;102049.03;5093136;28;20039;-51
2023/06/04 10:37:03;;;;;;;3.65;1.40;;;;;;;29.53;19.69;102056.03;5094042;28;20016;-49
2023/06/04 10:39:32;;;;;;;2.80;0.90;;;;;;;29.30;19.72;102051.44;5094031;28;20055;-50
2023/06/04 10:42:06;;;;;;;4.15;1.05;;;;;;;29.47;19.79;102058.88;5093437;28;20042;-50
2023/06/04 10:44:43;;;;;;;5.15;1.00;;;;;;;29.93;19.38;102056.56;5093956;28;20085;-49
2023/06/04 10:47:18;;;;;;;3.00;1.40;;;;;;;30.61;19.04;102065.78;5094085;28;20024;-50
2023/06/04 10:49:43;;;;;;;4.78;1.20;;;;;;;30.53;17.99;102058.06;5093322;28;20032;-50
2023/06/04 10:52:11;;;;;;;4.93;1.60;;;;;;;30.09;18.03;102057.78;5093844;28;20046;-49
2023/06/04 10:54:37;;;;;;;3.78;1.27;;;;;;;29.95;18.38;102054.72;5093468;28;20056;-49
2023/06/04 10:57:12;;;;;;;4.00;0.98;;;;;;;29.83;18.89;102061.28;5093222;28;20064;-49
2023/06/04 10:59:38;;;;;;;6.65;1.42;;;;;;;30.08;20.14;102056.03;5093635;28;20028;-49
2023/06/04 11:02:07;;;;;;;2.70;1.20;;;;;;;30.10;18.19;102064.84;5093713;28;20081;-50
2023/06/04 11:04:32;;;;;;;3.42;1.13;;;;;;;31.29;17.96;102057.13;5092671;28;20039;-50
2023/06/04 11:07:02;;;;;;;4.05;1.20;;;;;;;31.32;17.59;102064.97;5093555;28;20043;-49
2023/06/04 11:09:27;;;;;;;5.45;1.33;;;;;;;31.36;18.44;102054.16;5093236;28;20099;-45
2023/06/04 11:11:59;;;;;;;3.67;1.43;;;;;;;31.14;18.22;102056.78;5093288;28;20107;-46
2023/06/04 11:14:25;;;;;;;3.00;1.10;;;;;;;31.96;16.54;102036.69;5093288;28;20077;-48
2023/06/04 11:16:50;;;;;;;6.97;1.50;;;;;;;31.96;16.28;102052.69;5092654;28;20035;-47
2023/06/04 11:19:16;;;;;;;2.20;0.95;;;;;;;31.28;17.19;102044.72;5093052;28;20486;-44
2023/06/04 11:21:41;;;;;;;5.20;1.27;;;;;;;32.35;17.30;102054.63;5093385;28;20446;-47
2023/06/04 11:24:07;;;;;;;2.40;1.10;;;;;;;31.83;16.44;102044.34;5092756;28;20073;-48